createdAt,value
2019-05-29T00:01:20.382Z,12.57
2019-05-29T00:03:48.060Z,12.71
2019-05-29T00:06:18.471Z,12.88
2019-05-29T00:08:47.743Z,12.90
2019-05-29T00:11:16.904Z,12.59
2019-05-29T00:13:46.173Z,12.62
2019-05-29T00:16:15.386Z,12.85
2019-05-29T00:18:44.620Z,12.93
2019-05-29T00:21:14.710Z,12.90
2019-05-29T00:23:43.949Z,12.61
2019-05-29T00:26:13.158Z,12.71
2019-05-29T00:28:42.374Z,12.13
2019-05-29T00:31:12.213Z,12.02
2019-05-29T00:33:41.341Z,12.02
2019-05-29T00:36:10.524Z,11.96
2019-05-29T00:38:39.763Z,11.98
2019-05-29T00:41:08.994Z,12.02
2019-05-29T00:43:38.213Z,12.27
2019-05-29T00:46:07.391Z,12.33
2019-05-29T00:48:36.574Z,12.53
2019-05-29T00:51:05.774Z,12.66
2019-05-29T00:53:34.979Z,12.75
2019-05-29T00:56:04.218Z,12.66
2019-05-29T00:58:33.386Z,12.77
2019-05-29T01:01:02.585Z,12.65
2019-05-29T01:03:31.783Z,12.30
2019-05-29T01:06:00.981Z,12.17
2019-05-29T01:08:30.442Z,12.44
2019-05-29T01:10:59.619Z,12.37
2019-05-29T01:13:28.805Z,12.29
2019-05-29T01:15:57.979Z,12.20
2019-05-29T01:18:27.192Z,12.18
2019-05-29T01:20:56.586Z,12.27
2019-05-29T01:23:26.016Z,12.37
2019-05-29T01:25:55.305Z,12.44
2019-05-29T01:28:24.746Z,12.64
2019-05-29T01:30:53.973Z,12.69
2019-05-29T01:33:24.705Z,12.64
2019-05-29T01:35:54.179Z,12.64
2019-05-29T01:38:23.572Z,12.60
2019-05-29T01:40:52.803Z,12.45
2019-05-29T01:43:21.979Z,12.25
2019-05-29T01:45:51.199Z,12.52
2019-05-29T01:48:21.409Z,12.33
2019-05-29T01:50:50.892Z,12.51
2019-05-29T01:53:20.049Z,12.82
2019-05-29T01:55:49.214Z,12.44
2019-05-29T01:58:20.320Z,12.46
2019-05-29T02:00:49.482Z,12.52
2019-05-29T02:03:19.838Z,12.47
2019-05-29T02:05:49.081Z,12.17
2019-05-29T02:08:18.247Z,12.27
2019-05-29T02:10:47.434Z,12.45
2019-05-29T02:13:17.273Z,12.55
2019-05-29T02:15:46.729Z,12.65
2019-05-29T02:18:16.785Z,12.31
2019-05-29T02:20:46.074Z,12.12
2019-05-29T02:23:15.816Z,12.06
2019-05-29T02:25:44.927Z,12.06
2019-05-29T02:28:14.150Z,12.18
2019-05-29T02:30:43.341Z,12.24
2019-05-29T02:33:12.517Z,12.32
2019-05-29T02:35:41.810Z,12.54
2019-05-29T02:38:11.037Z,12.38
2019-05-29T02:40:40.185Z,12.49
2019-05-29T02:43:09.425Z,12.25
2019-05-29T02:45:53.449Z,12.30
2019-05-29T02:48:09.560Z,11.80
2019-05-29T02:50:38.776Z,11.99
2019-05-29T02:53:08.022Z,12.15
2019-05-29T02:55:37.210Z,12.42
2019-05-29T02:58:06.585Z,12.31
2019-05-29T03:01:04.244Z,12.26
2019-05-29T03:03:39.562Z,12.15
2019-05-29T03:06:04.359Z,11.71
2019-05-29T03:08:34.353Z,12.01
2019-05-29T03:11:03.823Z,12.24
2019-05-29T03:13:33.801Z,12.35
2019-05-29T03:16:11.312Z,12.35
2019-05-29T03:18:34.975Z,12.18
2019-05-29T03:21:04.602Z,12.25
2019-05-29T03:23:35.927Z,12.06
2019-05-29T03:26:04.941Z,12.18
2019-05-29T03:28:35.096Z,12.42
2019-05-29T03:31:04.674Z,11.99
2019-05-29T03:33:43.090Z,11.93
2019-05-29T03:36:04.714Z,11.93
2019-05-29T03:38:34.912Z,12.10
2019-05-29T03:41:04.486Z,12.16
2019-05-29T03:43:36.111Z,12.04
2019-05-29T03:46:04.634Z,11.71
2019-05-29T03:48:34.440Z,11.72
2019-05-29T03:51:03.838Z,11.80
2019-05-29T03:53:33.847Z,11.91
2019-05-29T03:56:04.343Z,12.14
2019-05-29T03:58:35.123Z,12.00
2019-05-29T04:01:04.826Z,11.79
2019-05-29T04:03:35.619Z,11.67
2019-05-29T04:06:05.675Z,11.95
2019-05-29T04:08:35.716Z,12.37
2019-05-29T04:11:06.025Z,12.39
2019-05-29T04:13:36.265Z,12.32
2019-05-29T04:16:06.345Z,12.23
2019-05-29T04:18:37.981Z,12.09
2019-05-29T04:21:07.291Z,12.02
2019-05-29T04:23:38.250Z,12.24
2019-05-29T04:26:09.439Z,12.07
2019-05-29T04:28:39.169Z,12.18
2019-05-29T04:31:08.406Z,12.42
2019-05-29T04:33:38.906Z,12.30
2019-05-29T04:36:08.285Z,12.51
2019-05-29T04:38:39.714Z,12.14
2019-05-29T04:41:08.514Z,12.16
2019-05-29T04:43:39.667Z,12.41
2019-05-29T04:46:08.617Z,12.25
2019-05-29T04:48:40.212Z,12.45
2019-05-29T04:51:08.966Z,12.42
2019-05-29T04:53:39.712Z,12.60
2019-05-29T04:56:09.273Z,12.54
2019-05-29T04:58:39.075Z,12.56
2019-05-29T05:01:09.071Z,12.54
2019-05-29T05:03:39.408Z,12.64
2019-05-29T05:06:09.045Z,12.57
2019-05-29T05:08:39.512Z,12.76
2019-05-29T05:11:10.917Z,12.70
2019-05-29T05:13:40.241Z,12.38
2019-05-29T05:16:09.643Z,12.59
2019-05-29T05:18:40.033Z,12.99
2019-05-29T05:21:09.445Z,12.08
2019-05-29T05:23:38.605Z,12.54
2019-05-29T05:26:07.841Z,12.38
2019-05-29T05:28:38.518Z,12.46
2019-05-29T05:31:07.912Z,12.89
2019-05-29T05:33:37.174Z,12.73
2019-05-29T05:36:06.407Z,13.15
2019-05-29T05:38:36.707Z,12.73
2019-05-29T05:41:05.996Z,12.06
2019-05-29T05:43:35.229Z,12.49
2019-05-29T05:46:04.422Z,12.21
2019-05-29T05:48:33.654Z,12.24
2019-05-29T05:51:02.869Z,12.10
2019-05-29T05:53:33.326Z,12.24
2019-05-29T05:56:02.557Z,12.82
2019-05-29T05:58:31.872Z,12.66
2019-05-29T06:01:01.070Z,12.74
2019-05-29T06:03:30.281Z,12.18
2019-05-29T06:06:00.714Z,12.11
2019-05-29T06:08:30.026Z,12.79
2019-05-29T06:10:59.327Z,12.33
2019-05-29T06:13:28.748Z,12.75
2019-05-29T06:15:58.013Z,12.21
2019-05-29T06:18:27.185Z,12.08
2019-05-29T06:20:56.381Z,11.85
2019-05-29T06:23:25.645Z,12.31
2019-05-29T06:25:54.842Z,12.46
2019-05-29T06:28:24.118Z,12.17
2019-05-29T06:30:53.368Z,12.39
2019-05-29T06:33:22.544Z,12.33
2019-05-29T06:35:51.735Z,12.04
2019-05-29T06:38:21.011Z,12.03
2019-05-29T06:40:50.222Z,12.08
2019-05-29T06:43:23.984Z,12.32
2019-05-29T06:45:54.969Z,12.27
2019-05-29T06:48:41.578Z,12.16
2019-05-29T06:50:57.586Z,12.52
2019-05-29T06:53:27.022Z,12.97
2019-05-29T06:55:57.533Z,12.92
2019-05-29T06:58:27.307Z,13.05
2019-05-29T07:00:56.604Z,13.12
2019-05-29T07:03:25.876Z,13.54
2019-05-29T07:05:55.074Z,13.59
2019-05-29T07:08:38.347Z,13.78
2019-05-29T07:10:55.249Z,13.78
2019-05-29T07:13:24.712Z,13.97
2019-05-29T07:15:53.931Z,13.39
2019-05-29T07:18:23.115Z,13.06
2019-05-29T07:20:52.388Z,13.17
2019-05-29T07:23:21.561Z,12.86
2019-05-29T07:25:50.784Z,12.99
2019-05-29T07:28:20.088Z,12.87
2019-05-29T07:31:00.356Z,12.73
2019-05-29T07:33:20.390Z,12.91
2019-05-29T07:35:49.672Z,12.75
2019-05-29T07:38:18.926Z,12.63
2019-05-29T07:40:50.112Z,13.25
2019-05-29T07:43:19.199Z,12.82
2019-05-29T07:45:48.474Z,12.72
2019-05-29T07:48:17.688Z,12.75
2019-05-29T07:50:46.967Z,12.88
2019-05-29T07:53:16.194Z,13.15
2019-05-29T07:55:46.667Z,13.16
2019-05-29T07:58:15.877Z,12.92
2019-05-29T08:01:06.944Z,13.31
2019-05-29T08:03:16.056Z,13.61
2019-05-29T08:05:49.207Z,13.73
2019-05-29T08:08:16.276Z,13.17
2019-05-29T08:10:45.600Z,13.44
2019-05-29T08:13:14.837Z,13.11
2019-05-29T08:15:57.499Z,13.48
2019-05-29T08:18:15.379Z,13.20
2019-05-29T08:20:44.560Z,13.18
2019-05-29T08:23:13.781Z,13.64
2019-05-29T08:25:43.437Z,13.55
2019-05-29T08:28:12.961Z,14.67
2019-05-29T08:30:47.384Z,14.73
2019-05-29T08:33:13.289Z,14.20
2019-05-29T08:35:43.063Z,14.39
2019-05-29T08:38:12.362Z,14.69
2019-05-29T08:40:41.654Z,15.01
2019-05-29T08:43:10.913Z,15.66
2019-05-29T08:45:41.559Z,15.24
2019-05-29T08:48:10.786Z,15.21
2019-05-29T08:50:41.476Z,16.28
2019-05-29T08:53:11.051Z,15.23
2019-05-29T08:55:40.298Z,15.65
2019-05-29T08:58:09.531Z,15.15
2019-05-29T09:00:38.707Z,14.88
2019-05-29T09:03:07.924Z,15.09
2019-05-29T09:05:37.223Z,15.95
2019-05-29T09:08:06.459Z,15.39
2019-05-29T09:10:35.657Z,15.71
2019-05-29T09:13:05.431Z,15.19
2019-05-29T09:15:34.613Z,15.25
2019-05-29T09:18:04.070Z,15.16
2019-05-29T09:20:57.968Z,15.62
2019-05-29T09:23:04.220Z,15.24
2019-05-29T09:25:33.388Z,15.01
2019-05-29T09:28:02.188Z,15.37
2019-05-29T09:30:31.401Z,15.75
2019-05-29T09:33:00.629Z,15.31
2019-05-29T09:35:29.844Z,15.14
2019-05-29T09:37:59.046Z,15.43
2019-05-29T09:40:28.239Z,15.57
2019-05-29T09:42:57.454Z,16.20
2019-05-29T09:45:26.676Z,16.76
2019-05-29T09:47:55.865Z,15.82
2019-05-29T09:50:27.473Z,16.48
2019-05-29T09:52:57.186Z,16.78
2019-05-29T09:55:27.372Z,17.75
2019-05-29T09:57:56.895Z,16.95
2019-05-29T10:00:26.279Z,17.12
2019-05-29T10:02:55.683Z,15.77
2019-05-29T10:05:24.895Z,15.45
2019-05-29T10:07:55.130Z,15.06
2019-05-29T10:10:25.083Z,15.04
2019-05-29T10:12:55.371Z,15.51
2019-05-29T10:15:25.349Z,16.63
2019-05-29T10:17:55.862Z,15.02
2019-05-29T10:20:26.990Z,15.65
2019-05-29T10:22:57.133Z,15.03
2019-05-29T10:25:26.375Z,15.32
2019-05-29T10:27:55.601Z,14.93
2019-05-29T10:30:26.361Z,14.90
2019-05-29T10:32:55.542Z,15.31
2019-05-29T10:35:24.763Z,15.22
2019-05-29T10:37:53.989Z,15.39
2019-05-29T10:40:23.271Z,15.41
2019-05-29T10:42:53.512Z,16.28
2019-05-29T10:45:23.015Z,15.26
2019-05-29T10:47:52.782Z,16.03
2019-05-29T10:50:23.180Z,15.43
2019-05-29T10:52:52.356Z,16.34
2019-05-29T10:55:23.310Z,15.86
2019-05-29T10:57:53.234Z,16.16
2019-05-29T11:00:23.023Z,16.52
2019-05-29T11:02:53.519Z,17.60
2019-05-29T11:05:23.207Z,18.29
2019-05-29T11:07:52.405Z,17.39
2019-05-29T11:10:21.662Z,17.66
2019-05-29T11:12:50.923Z,16.56
2019-05-29T11:15:22.064Z,17.13
2019-05-29T11:17:51.598Z,18.12
2019-05-29T11:20:21.083Z,17.68
2019-05-29T11:22:51.537Z,17.46
2019-05-29T11:25:26.497Z,17.20
2019-05-29T11:27:53.229Z,16.87
2019-05-29T11:30:23.430Z,17.15
2019-05-29T11:32:54.983Z,17.34
2019-05-29T11:35:23.595Z,18.41
2019-05-29T11:37:52.904Z,18.69
2019-05-29T11:40:22.232Z,17.97
2019-05-29T11:42:52.676Z,17.98
2019-05-29T11:45:22.248Z,17.79
2019-05-29T11:47:53.696Z,17.36
2019-05-29T11:50:22.822Z,17.88
2019-05-29T11:52:52.370Z,18.17
2019-05-29T11:55:21.683Z,17.92
2019-05-29T11:57:51.804Z,18.44
2019-05-29T12:00:21.771Z,18.71
2019-05-29T12:02:51.491Z,17.97
2019-05-29T12:05:21.241Z,18.18
2019-05-29T12:07:51.542Z,18.72
2019-05-29T12:10:21.416Z,18.74
2019-05-29T12:12:51.417Z,18.43
2019-05-29T12:15:20.864Z,18.66
2019-05-29T12:17:55.694Z,18.69
2019-05-29T12:20:28.220Z,18.13
2019-05-29T12:23:16.313Z,16.53
2019-05-29T12:25:23.202Z,15.09
2019-05-29T12:27:52.773Z,15.45
2019-05-29T12:30:22.163Z,14.85
2019-05-29T12:32:52.647Z,14.79
2019-05-29T12:35:21.995Z,14.43
2019-05-29T12:37:51.242Z,14.19
2019-05-29T12:40:21.442Z,14.48
2019-05-29T12:42:50.740Z,14.61
2019-05-29T12:45:20.757Z,14.59
2019-05-29T12:47:49.942Z,14.82
2019-05-29T12:50:19.658Z,14.58
2019-05-29T12:52:49.059Z,14.34
2019-05-29T12:55:18.340Z,14.71
2019-05-29T12:57:47.454Z,14.84
2019-05-29T13:00:18.929Z,14.91
2019-05-29T13:02:48.149Z,15.18
2019-05-29T13:05:20.398Z,15.28
2019-05-29T13:07:48.868Z,15.23
2019-05-29T13:10:29.858Z,15.39
2019-05-29T13:12:51.541Z,15.42
2019-05-29T13:15:21.410Z,17.25
2019-05-29T13:17:54.427Z,15.94
2019-05-29T13:20:22.521Z,16.63
2019-05-29T13:22:51.771Z,16.18
2019-05-29T13:25:21.171Z,16.67
2019-05-29T13:27:50.395Z,16.48
2019-05-29T13:30:23.059Z,17.07
2019-05-29T13:32:52.350Z,16.24
2019-05-29T13:35:22.584Z,17.03
2019-05-29T13:37:51.831Z,16.02
2019-05-29T13:40:21.071Z,16.44
2019-05-29T13:42:50.288Z,15.57
2019-05-29T13:45:19.765Z,15.40
2019-05-29T13:47:48.969Z,15.60
2019-05-29T13:50:18.746Z,15.91
2019-05-29T13:52:47.977Z,15.81
2019-05-29T13:55:17.503Z,16.33
2019-05-29T13:57:46.703Z,15.59
2019-05-29T14:00:32.263Z,16.43
2019-05-29T14:02:47.666Z,16.95
2019-05-29T14:05:17.728Z,16.71
2019-05-29T14:07:47.136Z,16.37
2019-05-29T14:10:16.629Z,16.28
2019-05-29T14:12:45.868Z,15.57
2019-05-29T14:15:15.715Z,15.31
2019-05-29T14:17:45.047Z,15.45
2019-05-29T14:20:14.512Z,15.74
2019-05-29T14:22:43.753Z,15.57
2019-05-29T14:25:13.960Z,15.61
2019-05-29T14:27:43.155Z,16.17
2019-05-29T14:30:13.972Z,15.95
2019-05-29T14:32:43.423Z,15.67
2019-05-29T14:35:13.552Z,15.85
2019-05-29T14:37:42.792Z,16.05
2019-05-29T14:40:12.464Z,16.11
2019-05-29T14:42:42.144Z,16.43
2019-05-29T14:45:12.701Z,16.56
2019-05-29T14:47:41.897Z,17.39
2019-05-29T14:50:13.462Z,16.85
2019-05-29T14:52:42.896Z,16.83
2019-05-29T14:55:16.077Z,16.75
2019-05-29T14:57:43.400Z,16.37
2019-05-29T15:00:24.100Z,16.54
2019-05-29T15:02:44.414Z,16.77
2019-05-29T15:05:15.325Z,17.15
2019-05-29T15:07:44.522Z,16.97
2019-05-29T15:10:24.957Z,17.92
2019-05-29T15:12:45.131Z,16.79
2019-05-29T15:15:16.427Z,16.60
2019-05-29T15:17:45.818Z,17.36
2019-05-29T15:20:16.839Z,17.01
2019-05-29T15:22:46.329Z,17.08
2019-05-29T15:25:23.429Z,17.72
2019-05-29T15:27:46.860Z,17.72
2019-05-29T15:30:22.340Z,17.06
2019-05-29T15:32:47.736Z,16.88
2019-05-29T15:35:20.131Z,16.64
2019-05-29T15:37:49.525Z,16.23
2019-05-29T15:40:19.111Z,16.59
2019-05-29T15:42:48.831Z,16.69
2019-05-29T15:45:18.448Z,16.46
2019-05-29T15:47:48.143Z,16.94
2019-05-29T15:50:18.432Z,17.06
2019-05-29T15:52:49.574Z,16.63
2019-05-29T15:55:29.536Z,17.76
2019-05-29T15:57:50.045Z,17.18
2019-05-29T16:00:19.521Z,16.88
2019-05-29T16:02:49.781Z,16.84
2019-05-29T16:05:19.609Z,16.29
2019-05-29T16:07:48.875Z,16.03
2019-05-29T16:10:20.970Z,15.82
2019-05-29T16:12:50.404Z,16.22
2019-05-29T16:15:20.801Z,16.42
2019-05-29T16:17:50.045Z,16.87
2019-05-29T16:20:19.712Z,16.07
2019-05-29T16:22:49.070Z,15.96
2019-05-29T16:25:19.180Z,16.08
2019-05-29T16:27:48.444Z,16.19
2019-05-29T16:30:18.178Z,15.57
2019-05-29T16:32:48.138Z,15.88
2019-05-29T16:35:19.423Z,16.13
2019-05-29T16:37:49.165Z,16.29
2019-05-29T16:40:19.966Z,16.38
2019-05-29T16:42:49.657Z,16.17
2019-05-29T16:45:20.451Z,16.22
2019-05-29T16:47:50.005Z,15.72
2019-05-29T16:50:21.128Z,16.03
2019-05-29T16:52:50.478Z,16.31
2019-05-29T16:55:20.945Z,16.26
2019-05-29T16:57:50.350Z,16.64
2019-05-29T17:00:21.502Z,16.21
2019-05-29T17:02:51.525Z,15.70
2019-05-29T17:05:22.137Z,15.84
2019-05-29T17:07:51.750Z,16.32
2019-05-29T17:10:25.452Z,16.21
2019-05-29T17:12:54.881Z,16.01
2019-05-29T17:15:24.761Z,15.40
2019-05-29T17:17:54.462Z,16.28
2019-05-29T17:20:38.584Z,15.97
2019-05-29T17:23:07.998Z,16.24
2019-05-29T17:25:37.188Z,15.90
2019-05-29T17:28:06.595Z,16.75
2019-05-29T17:30:36.085Z,17.09
2019-05-29T17:33:06.123Z,17.39
2019-05-29T17:35:35.516Z,17.12
2019-05-29T17:38:04.776Z,16.54
2019-05-29T17:40:33.964Z,16.47
2019-05-29T17:43:03.458Z,16.66
2019-05-29T17:45:32.743Z,16.87
2019-05-29T17:48:02.056Z,17.17
2019-05-29T17:50:31.186Z,16.85
2019-05-29T17:53:00.457Z,16.74
2019-05-29T17:55:29.677Z,16.49
2019-05-29T17:57:58.928Z,16.45
2019-05-29T18:00:28.170Z,16.18
2019-05-29T18:02:57.382Z,16.06
2019-05-29T18:05:26.746Z,16.42
2019-05-29T18:07:56.084Z,16.45
2019-05-29T18:10:25.779Z,16.48
2019-05-29T18:12:54.980Z,16.22
2019-05-29T18:15:25.546Z,15.87
2019-05-29T18:17:55.244Z,16.50
2019-05-29T18:20:25.704Z,16.41
2019-05-29T18:22:55.090Z,16.48
2019-05-29T18:25:25.947Z,16.18
2019-05-29T18:27:55.324Z,16.04
2019-05-29T18:30:24.767Z,16.10
2019-05-29T18:32:54.239Z,15.73
2019-05-29T18:35:23.564Z,16.04
2019-05-29T18:37:52.852Z,16.04
2019-05-29T18:40:22.409Z,16.20
2019-05-29T18:42:51.782Z,15.96
2019-05-29T18:45:23.450Z,16.10
2019-05-29T18:47:52.367Z,15.46
2019-05-29T18:50:21.920Z,15.54
2019-05-29T18:52:51.293Z,14.43
2019-05-29T18:55:20.868Z,14.14
2019-05-29T18:57:50.254Z,13.77
2019-05-29T19:00:21.261Z,13.61
2019-05-29T19:02:50.783Z,13.84
2019-05-29T19:05:21.410Z,13.80
2019-05-29T19:07:50.856Z,13.65
2019-05-29T19:10:21.598Z,13.00
2019-05-29T19:12:50.959Z,13.45
2019-05-29T19:15:21.868Z,13.30
2019-05-29T19:17:51.174Z,14.03
2019-05-29T19:20:22.111Z,14.13
2019-05-29T19:22:51.432Z,13.50
2019-05-29T19:25:20.829Z,13.75
2019-05-29T19:27:50.070Z,14.06
2019-05-29T19:30:20.393Z,13.79
2019-05-29T19:32:49.621Z,13.83
2019-05-29T19:35:19.904Z,13.81
2019-05-29T19:37:49.113Z,13.54
2019-05-29T19:40:19.260Z,13.01
2019-05-29T19:42:48.507Z,12.62
2019-05-29T19:45:18.184Z,13.01
2019-05-29T19:47:47.631Z,12.65
2019-05-29T19:50:16.966Z,12.62
2019-05-29T19:52:46.317Z,12.84
2019-05-29T19:55:16.708Z,13.55
2019-05-29T19:57:55.642Z,13.67
2019-05-29T20:00:18.398Z,12.91
2019-05-29T20:02:47.844Z,13.18
2019-05-29T20:05:17.461Z,13.66
2019-05-29T20:07:46.692Z,13.65
2019-05-29T20:10:16.250Z,12.77
2019-05-29T20:12:45.667Z,12.30
2019-05-29T20:15:15.778Z,12.95
2019-05-29T20:17:45.119Z,12.76
2019-05-29T20:20:14.468Z,13.15
2019-05-29T20:22:43.656Z,13.50
2019-05-29T20:25:14.015Z,13.58
2019-05-29T20:27:43.344Z,13.70
2019-05-29T20:30:17.573Z,13.72
2019-05-29T20:32:46.865Z,13.69
2019-05-29T20:35:16.533Z,13.70
2019-05-29T20:37:45.945Z,13.59
2019-05-29T20:40:15.516Z,13.70
2019-05-29T20:42:44.803Z,13.29
2019-05-29T20:45:14.156Z,13.55
2019-05-29T20:47:43.563Z,13.64
2019-05-29T20:50:13.735Z,13.57
2019-05-29T20:52:43.121Z,13.50
2019-05-29T20:55:12.487Z,13.36
2019-05-29T20:57:42.211Z,11.92
2019-05-29T21:00:12.899Z,11.21
2019-05-29T21:02:42.693Z,11.87
2019-05-29T21:05:13.475Z,12.75
2019-05-29T21:07:42.984Z,12.67
2019-05-29T21:10:13.378Z,12.75
2019-05-29T21:12:46.104Z,12.73
2019-05-29T21:15:14.321Z,12.09
2019-05-29T21:17:44.084Z,12.30
2019-05-29T21:20:13.369Z,12.09
2019-05-29T21:22:43.004Z,12.02
2019-05-29T21:25:17.573Z,12.43
2019-05-29T21:27:47.062Z,12.43
2019-05-29T21:30:14.795Z,12.35
2019-05-29T21:32:44.361Z,12.64
2019-05-29T21:35:13.721Z,12.55
2019-05-29T21:37:44.311Z,12.52
2019-05-29T21:40:14.214Z,11.77
2019-05-29T21:42:44.769Z,12.34
2019-05-29T21:45:14.188Z,12.28
2019-05-29T21:47:43.649Z,12.35
2019-05-29T21:50:13.197Z,12.00
2019-05-29T21:52:43.635Z,11.96
2019-05-29T21:55:13.379Z,12.24
2019-05-29T21:57:45.568Z,12.20
2019-05-29T22:00:18.005Z,12.15
2019-05-29T22:02:48.537Z,12.18
2019-05-29T22:05:18.347Z,12.04
2019-05-29T22:07:48.862Z,12.19
2019-05-29T22:10:18.299Z,12.29
2019-05-29T22:12:47.531Z,12.15
2019-05-29T22:15:16.874Z,11.85
2019-05-29T22:17:46.110Z,11.54
2019-05-29T22:20:15.529Z,11.63
2019-05-29T22:22:44.863Z,11.88
2019-05-29T22:25:14.520Z,11.34
2019-05-29T22:27:43.742Z,11.83
2019-05-29T22:30:15.105Z,11.89
2019-05-29T22:32:44.536Z,11.69
2019-05-29T22:35:14.075Z,11.46
2019-05-29T22:37:43.598Z,11.70
2019-05-29T22:40:13.656Z,11.38
2019-05-29T22:42:43.012Z,10.84
2019-05-29T22:45:12.602Z,11.53
2019-05-29T22:47:41.805Z,11.37
2019-05-29T22:50:11.531Z,10.70
2019-05-29T22:52:40.891Z,9.92
2019-05-29T22:55:10.289Z,9.62
2019-05-29T22:57:39.547Z,9.43
2019-05-29T23:00:09.839Z,9.36
2019-05-29T23:02:38.119Z,9.50
2019-05-29T23:05:06.405Z,9.16
2019-05-29T23:07:35.644Z,9.24
2019-05-29T23:10:06.796Z,9.24
2019-05-29T23:12:36.378Z,9.88
2019-05-29T23:15:07.696Z,10.48
2019-05-29T23:17:36.951Z,10.56
2019-05-29T23:20:06.861Z,10.55
2019-05-29T23:22:36.272Z,10.73
2019-05-29T23:25:05.951Z,10.63
2019-05-29T23:27:35.473Z,10.23
2019-05-29T23:30:05.403Z,10.44
2019-05-29T23:32:34.588Z,10.38
2019-05-29T23:35:03.843Z,9.99
2019-05-29T23:37:33.578Z,9.57
2019-05-29T23:40:03.509Z,10.39
2019-05-29T23:42:33.036Z,9.80
2019-05-29T23:45:03.655Z,9.91
2019-05-29T23:47:32.954Z,9.56
2019-05-29T23:50:03.189Z,10.30
2019-05-29T23:52:33.340Z,10.38
2019-05-29T23:55:03.984Z,9.91
2019-05-29T23:57:33.347Z,9.61
